sensor_id;sensor_type;location;lat;lon;timestamp;P1;durP1;ratioP1;P2;durP2;ratioP2
5965;SDS011;3009;43.224;27.976;2023-07-22T00:01:38;16.00;;;12.50;;
5965;SDS011;3009;43.224;27.976;2023-07-22T00:04:06;14.53;;;13.10;;
5965;SDS011;3009;43.224;27.976;2023-07-22T00:06:34;14.50;;;13.00;;
5965;SDS011;3009;43.224;27.976;2023-07-22T00:09:03;14.30;;;12.90;;
5965;SDS011;3009;43.224;27.976;2023-07-22T00:11:33;15.17;;;13.57;;
5965;SDS011;3009;43.224;27.976;2023-07-22T00:14:02;14.27;;;13.07;;
5965;SDS011;3009;43.224;27.976;2023-07-22T00:16:32;17.83;;;13.27;;
5965;SDS011;3009;43.224;27.976;2023-07-22T00:19:01;14.23;;;12.93;;
5965;SDS011;3009;43.224;27.976;2023-07-22T00:21:29;16.20;;;13.33;;
5965;SDS011;3009;43.224;27.976;2023-07-22T00:23:58;15.47;;;12.37;;
5965;SDS011;3009;43.224;27.976;2023-07-22T00:26:26;26.30;;;12.53;;
5965;SDS011;3009;43.224;27.976;2023-07-22T00:28:57;13.43;;;12.07;;
5965;SDS011;3009;43.224;27.976;2023-07-22T00:31:26;14.03;;;12.60;;
5965;SDS011;3009;43.224;27.976;2023-07-22T00:33:54;17.70;;;13.83;;
5965;SDS011;3009;43.224;27.976;2023-07-22T00:36:23;14.50;;;13.10;;
5965;SDS011;3009;43.224;27.976;2023-07-22T00:38:52;13.33;;;12.03;;
5965;SDS011;3009;43.224;27.976;2023-07-22T00:41:20;17.97;;;12.77;;
5965;SDS011;3009;43.224;27.976;2023-07-22T00:43:49;16.83;;;14.93;;
5965;SDS011;3009;43.224;27.976;2023-07-22T00:46:18;15.30;;;13.70;;
5965;SDS011;3009;43.224;27.976;2023-07-22T00:48:47;14.70;;;13.37;;
5965;SDS011;3009;43.224;27.976;2023-07-22T00:51:16;16.43;;;13.40;;
5965;SDS011;3009;43.224;27.976;2023-07-22T00:53:45;16.73;;;14.30;;
5965;SDS011;3009;43.224;27.976;2023-07-22T00:56:14;18.40;;;13.90;;
5965;SDS011;3009;43.224;27.976;2023-07-22T00:58:42;17.77;;;15.60;;
5965;SDS011;3009;43.224;27.976;2023-07-22T01:01:11;24.80;;;15.20;;
5965;SDS011;3009;43.224;27.976;2023-07-22T01:03:40;17.67;;;14.00;;
5965;SDS011;3009;43.224;27.976;2023-07-22T01:06:09;14.70;;;13.40;;
5965;SDS011;3009;43.224;27.976;2023-07-22T01:08:39;16.73;;;14.70;;
5965;SDS011;3009;43.224;27.976;2023-07-22T01:11:07;15.40;;;13.20;;
5965;SDS011;3009;43.224;27.976;2023-07-22T01:13:43;21.40;;;14.97;;
5965;SDS011;3009;43.224;27.976;2023-07-22T01:16:11;22.00;;;14.67;;
5965;SDS011;3009;43.224;27.976;2023-07-22T01:18:41;16.00;;;12.70;;
5965;SDS011;3009;43.224;27.976;2023-07-22T01:21:10;20.30;;;13.80;;
5965;SDS011;3009;43.224;27.976;2023-07-22T01:23:41;19.17;;;14.30;;
5965;SDS011;3009;43.224;27.976;2023-07-22T01:26:10;15.47;;;14.03;;
5965;SDS011;3009;43.224;27.976;2023-07-22T01:28:38;14.97;;;13.50;;
5965;SDS011;3009;43.224;27.976;2023-07-22T01:31:07;18.17;;;14.10;;
5965;SDS011;3009;43.224;27.976;2023-07-22T01:33:35;15.30;;;13.90;;
5965;SDS011;3009;43.224;27.976;2023-07-22T01:36:04;15.60;;;14.00;;
5965;SDS011;3009;43.224;27.976;2023-07-22T01:38:34;14.97;;;13.00;;
5965;SDS011;3009;43.224;27.976;2023-07-22T01:41:03;17.40;;;13.20;;
5965;SDS011;3009;43.224;27.976;2023-07-22T01:43:32;20.73;;;13.43;;
5965;SDS011;3009;43.224;27.976;2023-07-22T01:46:00;16.13;;;13.40;;
5965;SDS011;3009;43.224;27.976;2023-07-22T01:48:29;24.53;;;14.83;;
5965;SDS011;3009;43.224;27.976;2023-07-22T01:50:59;18.77;;;14.67;;
5965;SDS011;3009;43.224;27.976;2023-07-22T01:53:27;17.67;;;14.00;;
5965;SDS011;3009;43.224;27.976;2023-07-22T01:55:55;14.33;;;12.90;;
5965;SDS011;3009;43.224;27.976;2023-07-22T01:58:25;19.37;;;13.07;;
5965;SDS011;3009;43.224;27.976;2023-07-22T02:00:53;18.13;;;14.73;;
5965;SDS011;3009;43.224;27.976;2023-07-22T02:03:22;19.93;;;13.60;;
5965;SDS011;3009;43.224;27.976;2023-07-22T02:05:51;16.73;;;15.00;;
5965;SDS011;3009;43.224;27.976;2023-07-22T02:08:19;22.83;;;14.50;;
5965;SDS011;3009;43.224;27.976;2023-07-22T02:10:47;16.27;;;14.57;;
5965;SDS011;3009;43.224;27.976;2023-07-22T02:13:16;23.03;;;14.83;;
5965;SDS011;3009;43.224;27.976;2023-07-22T02:15:45;16.33;;;13.10;;
5965;SDS011;3009;43.224;27.976;2023-07-22T02:18:14;17.50;;;15.03;;
5965;SDS011;3009;43.224;27.976;2023-07-22T02:20:42;18.63;;;14.97;;
5965;SDS011;3009;43.224;27.976;2023-07-22T02:23:11;15.87;;;13.33;;
5965;SDS011;3009;43.224;27.976;2023-07-22T02:25:39;16.30;;;14.07;;
5965;SDS011;3009;43.224;27.976;2023-07-22T02:28:07;17.30;;;13.80;;
5965;SDS011;3009;43.224;27.976;2023-07-22T02:30:36;15.87;;;14.07;;
5965;SDS011;3009;43.224;27.976;2023-07-22T02:33:06;16.80;;;13.60;;
5965;SDS011;3009;43.224;27.976;2023-07-22T02:35:35;23.47;;;14.70;;
5965;SDS011;3009;43.224;27.976;2023-07-22T02:38:03;16.10;;;14.60;;
5965;SDS011;3009;43.224;27.976;2023-07-22T02:40:33;18.17;;;14.20;;
5965;SDS011;3009;43.224;27.976;2023-07-22T02:43:02;16.20;;;14.50;;
5965;SDS011;3009;43.224;27.976;2023-07-22T02:45:32;18.30;;;14.77;;
5965;SDS011;3009;43.224;27.976;2023-07-22T02:48:00;17.63;;;13.83;;
5965;SDS011;3009;43.224;27.976;2023-07-22T02:50:31;20.13;;;14.83;;
5965;SDS011;3009;43.224;27.976;2023-07-22T02:53:01;16.97;;;14.40;;
5965;SDS011;3009;43.224;27.976;2023-07-22T02:55:29;16.43;;;14.53;;
5965;SDS011;3009;43.224;27.976;2023-07-22T02:57:57;18.47;;;14.10;;
5965;SDS011;3009;43.224;27.976;2023-07-22T03:00:26;22.10;;;14.40;;
5965;SDS011;3009;43.224;27.976;2023-07-22T03:02:55;25.83;;;14.50;;
5965;SDS011;3009;43.224;27.976;2023-07-22T03:05:27;17.67;;;13.53;;
5965;SDS011;3009;43.224;27.976;2023-07-22T03:07:58;25.33;;;14.57;;
5965;SDS011;3009;43.224;27.976;2023-07-22T03:10:27;15.43;;;13.83;;
5965;SDS011;3009;43.224;27.976;2023-07-22T03:12:55;15.53;;;13.97;;
5965;SDS011;3009;43.224;27.976;2023-07-22T03:15:25;14.23;;;12.77;;
5965;SDS011;3009;43.224;27.976;2023-07-22T03:17:53;18.63;;;13.20;;
5965;SDS011;3009;43.224;27.976;2023-07-22T03:20:22;21.83;;;13.30;;
5965;SDS011;3009;43.224;27.976;2023-07-22T03:22:51;14.10;;;12.67;;
5965;SDS011;3009;43.224;27.976;2023-07-22T03:25:22;19.87;;;13.03;;
5965;SDS011;3009;43.224;27.976;2023-07-22T03:27:50;16.00;;;12.60;;
5965;SDS011;3009;43.224;27.976;2023-07-22T03:30:21;13.50;;;12.27;;
5965;SDS011;3009;43.224;27.976;2023-07-22T03:32:50;13.47;;;12.10;;
5965;SDS011;3009;43.224;27.976;2023-07-22T03:35:18;14.23;;;12.43;;
5965;SDS011;3009;43.224;27.976;2023-07-22T03:37:46;15.23;;;11.80;;
5965;SDS011;3009;43.224;27.976;2023-07-22T03:40:15;15.33;;;11.40;;
5965;SDS011;3009;43.224;27.976;2023-07-22T03:42:48;14.27;;;12.23;;
5965;SDS011;3009;43.224;27.976;2023-07-22T03:45:18;12.87;;;11.40;;
5965;SDS011;3009;43.224;27.976;2023-07-22T03:47:50;12.43;;;11.20;;
5965;SDS011;3009;43.224;27.976;2023-07-22T03:50:19;12.83;;;11.30;;
5965;SDS011;3009;43.224;27.976;2023-07-22T03:52:48;16.03;;;10.33;;
5965;SDS011;3009;43.224;27.976;2023-07-22T03:55:16;13.13;;;9.67;;
5965;SDS011;3009;43.224;27.976;2023-07-22T03:57:47;11.50;;;9.20;;
5965;SDS011;3009;43.224;27.976;2023-07-22T04:00:16;8.63;;;7.73;;
5965;SDS011;3009;43.224;27.976;2023-07-22T04:02:44;8.73;;;7.80;;
5965;SDS011;3009;43.224;27.976;2023-07-22T04:05:13;8.87;;;8.00;;
5965;SDS011;3009;43.224;27.976;2023-07-22T04:07:41;9.47;;;8.37;;
5965;SDS011;3009;43.224;27.976;2023-07-22T04:10:09;8.90;;;8.00;;
5965;SDS011;3009;43.224;27.976;2023-07-22T04:12:38;8.60;;;7.80;;
5965;SDS011;3009;43.224;27.976;2023-07-22T04:15:10;8.73;;;8.03;;
5965;SDS011;3009;43.224;27.976;2023-07-22T04:17:39;9.73;;;8.70;;
5965;SDS011;3009;43.224;27.976;2023-07-22T04:20:08;10.00;;;9.00;;
5965;SDS011;3009;43.224;27.976;2023-07-22T04:22:37;8.80;;;8.00;;
5965;SDS011;3009;43.224;27.976;2023-07-22T04:25:06;11.77;;;8.93;;
5965;SDS011;3009;43.224;27.976;2023-07-22T04:27:35;9.60;;;8.50;;
5965;SDS011;3009;43.224;27.976;2023-07-22T04:30:04;9.70;;;8.13;;
5965;SDS011;3009;43.224;27.976;2023-07-22T04:32:35;9.43;;;8.53;;
5965;SDS011;3009;43.224;27.976;2023-07-22T04:35:03;8.77;;;7.97;;
5965;SDS011;3009;43.224;27.976;2023-07-22T04:37:33;14.97;;;8.63;;
5965;SDS011;3009;43.224;27.976;2023-07-22T04:40:02;9.67;;;8.50;;
5965;SDS011;3009;43.224;27.976;2023-07-22T04:42:35;11.00;;;9.13;;
5965;SDS011;3009;43.224;27.976;2023-07-22T04:45:03;12.37;;;8.70;;
5965;SDS011;3009;43.224;27.976;2023-07-22T04:47:32;10.03;;;8.97;;
5965;SDS011;3009;43.224;27.976;2023-07-22T04:50:02;11.73;;;8.50;;
5965;SDS011;3009;43.224;27.976;2023-07-22T04:52:32;8.90;;;7.50;;
5965;SDS011;3009;43.224;27.976;2023-07-22T04:55:00;9.40;;;8.00;;
5965;SDS011;3009;43.224;27.976;2023-07-22T04:57:35;8.90;;;7.47;;
5965;SDS011;3009;43.224;27.976;2023-07-22T05:00:03;9.70;;;7.43;;
5965;SDS011;3009;43.224;27.976;2023-07-22T05:02:32;7.33;;;6.73;;
5965;SDS011;3009;43.224;27.976;2023-07-22T05:05:03;7.90;;;7.30;;
5965;SDS011;3009;43.224;27.976;2023-07-22T05:07:31;12.53;;;7.80;;
5965;SDS011;3009;43.224;27.976;2023-07-22T05:10:00;8.23;;;7.30;;
5965;SDS011;3009;43.224;27.976;2023-07-22T05:12:28;11.50;;;7.13;;
5965;SDS011;3009;43.224;27.976;2023-07-22T05:14:59;9.63;;;7.50;;
5965;SDS011;3009;43.224;27.976;2023-07-22T05:17:27;8.77;;;7.60;;
5965;SDS011;3009;43.224;27.976;2023-07-22T05:19:58;8.20;;;7.13;;
5965;SDS011;3009;43.224;27.976;2023-07-22T05:22:28;8.03;;;7.43;;
5965;SDS011;3009;43.224;27.976;2023-07-22T05:24:56;7.43;;;6.70;;
5965;SDS011;3009;43.224;27.976;2023-07-22T05:27:24;7.43;;;6.83;;
5965;SDS011;3009;43.224;27.976;2023-07-22T05:29:53;8.87;;;7.13;;
5965;SDS011;3009;43.224;27.976;2023-07-22T05:32:22;6.87;;;6.40;;
5965;SDS011;3009;43.224;27.976;2023-07-22T05:34:59;7.43;;;6.72;;
5965;SDS011;3009;43.224;27.976;2023-07-22T05:37:32;8.35;;;6.15;;
5965;SDS011;3009;43.224;27.976;2023-07-22T05:40:01;6.43;;;5.90;;
5965;SDS011;3009;43.224;27.976;2023-07-22T05:42:30;7.53;;;6.22;;
5965;SDS011;3009;43.224;27.976;2023-07-22T05:44:58;6.95;;;5.68;;
5965;SDS011;3009;43.224;27.976;2023-07-22T05:47:28;11.93;;;6.53;;
5965;SDS011;3009;43.224;27.976;2023-07-22T05:49:56;6.53;;;6.03;;
5965;SDS011;3009;43.224;27.976;2023-07-22T05:52:25;6.65;;;6.00;;
5965;SDS011;3009;43.224;27.976;2023-07-22T05:54:54;6.28;;;5.63;;
5965;SDS011;3009;43.224;27.976;2023-07-22T05:57:23;5.78;;;5.28;;
5965;SDS011;3009;43.224;27.976;2023-07-22T05:59:52;6.75;;;5.40;;
5965;SDS011;3009;43.224;27.976;2023-07-22T06:02:34;9.00;;;5.70;;
5965;SDS011;3009;43.224;27.976;2023-07-22T06:05:02;6.05;;;5.35;;
5965;SDS011;3009;43.224;27.976;2023-07-22T06:07:31;6.05;;;5.47;;
5965;SDS011;3009;43.224;27.976;2023-07-22T06:10:01;6.22;;;5.72;;
5965;SDS011;3009;43.224;27.976;2023-07-22T06:12:30;5.70;;;5.20;;
5965;SDS011;3009;43.224;27.976;2023-07-22T06:14:58;6.28;;;5.68;;
5965;SDS011;3009;43.224;27.976;2023-07-22T06:17:27;6.05;;;5.65;;
5965;SDS011;3009;43.224;27.976;2023-07-22T06:19:55;9.27;;;5.70;;
5965;SDS011;3009;43.224;27.976;2023-07-22T06:22:24;5.82;;;5.40;;
5965;SDS011;3009;43.224;27.976;2023-07-22T06:24:52;5.43;;;4.97;;
5965;SDS011;3009;43.224;27.976;2023-07-22T06:27:22;5.00;;;4.68;;
5965;SDS011;3009;43.224;27.976;2023-07-22T06:29:50;6.32;;;5.72;;
5965;SDS011;3009;43.224;27.976;2023-07-22T06:32:19;7.70;;;5.57;;
5965;SDS011;3009;43.224;27.976;2023-07-22T06:34:47;6.13;;;5.28;;
5965;SDS011;3009;43.224;27.976;2023-07-22T06:37:16;5.88;;;5.13;;
5965;SDS011;3009;43.224;27.976;2023-07-22T06:39:44;5.55;;;5.00;;
5965;SDS011;3009;43.224;27.976;2023-07-22T06:42:12;6.53;;;5.05;;
5965;SDS011;3009;43.224;27.976;2023-07-22T06:44:43;6.22;;;5.22;;
5965;SDS011;3009;43.224;27.976;2023-07-22T06:47:11;6.03;;;5.63;;
5965;SDS011;3009;43.224;27.976;2023-07-22T06:49:39;6.30;;;5.80;;
5965;SDS011;3009;43.224;27.976;2023-07-22T06:52:12;6.20;;;5.60;;
5965;SDS011;3009;43.224;27.976;2023-07-22T06:54:41;6.68;;;6.10;;
5965;SDS011;3009;43.224;27.976;2023-07-22T06:57:09;6.88;;;6.35;;
5965;SDS011;3009;43.224;27.976;2023-07-22T06:59:38;6.07;;;5.57;;
5965;SDS011;3009;43.224;27.976;2023-07-22T07:02:08;6.53;;;5.90;;
5965;SDS011;3009;43.224;27.976;2023-07-22T07:04:36;6.63;;;6.22;;
5965;SDS011;3009;43.224;27.976;2023-07-22T07:07:05;6.97;;;5.93;;
5965;SDS011;3009;43.224;27.976;2023-07-22T07:09:34;6.75;;;6.05;;
5965;SDS011;3009;43.224;27.976;2023-07-22T07:12:03;6.90;;;6.22;;
5965;SDS011;3009;43.224;27.976;2023-07-22T07:14:32;6.22;;;5.82;;
5965;SDS011;3009;43.224;27.976;2023-07-22T07:17:01;8.23;;;5.65;;
5965;SDS011;3009;43.224;27.976;2023-07-22T07:19:32;7.03;;;6.43;;
5965;SDS011;3009;43.224;27.976;2023-07-22T07:22:01;7.75;;;6.20;;
5965;SDS011;3009;43.224;27.976;2023-07-22T07:24:29;14.93;;;6.47;;
5965;SDS011;3009;43.224;27.976;2023-07-22T07:26:58;7.45;;;6.63;;
5965;SDS011;3009;43.224;27.976;2023-07-22T07:29:26;6.57;;;6.18;;
5965;SDS011;3009;43.224;27.976;2023-07-22T07:31:57;7.30;;;6.70;;
5965;SDS011;3009;43.224;27.976;2023-07-22T07:34:26;7.63;;;6.65;;
5965;SDS011;3009;43.224;27.976;2023-07-22T07:36:56;8.60;;;6.95;;
5965;SDS011;3009;43.224;27.976;2023-07-22T07:39:25;6.75;;;6.30;;
5965;SDS011;3009;43.224;27.976;2023-07-22T07:41:54;7.18;;;6.68;;
5965;SDS011;3009;43.224;27.976;2023-07-22T07:44:22;7.70;;;6.97;;
5965;SDS011;3009;43.224;27.976;2023-07-22T07:46:51;8.52;;;6.55;;
5965;SDS011;3009;43.224;27.976;2023-07-22T07:49:22;7.97;;;7.10;;
5965;SDS011;3009;43.224;27.976;2023-07-22T07:51:50;6.80;;;6.18;;
5965;SDS011;3009;43.224;27.976;2023-07-22T07:54:20;7.20;;;6.60;;
5965;SDS011;3009;43.224;27.976;2023-07-22T07:56:49;6.50;;;6.05;;
5965;SDS011;3009;43.224;27.976;2023-07-22T07:59:17;6.63;;;6.13;;
5965;SDS011;3009;43.224;27.976;2023-07-22T08:01:45;10.93;;;6.53;;
5965;SDS011;3009;43.224;27.976;2023-07-22T08:04:14;7.53;;;5.90;;
5965;SDS011;3009;43.224;27.976;2023-07-22T08:06:44;7.07;;;6.43;;
5965;SDS011;3009;43.224;27.976;2023-07-22T08:09:12;8.18;;;7.10;;
5965;SDS011;3009;43.224;27.976;2023-07-22T08:11:47;8.00;;;7.13;;
5965;SDS011;3009;43.224;27.976;2023-07-22T08:14:15;7.77;;;7.03;;
5965;SDS011;3009;43.224;27.976;2023-07-22T08:16:48;8.17;;;7.43;;
5965;SDS011;3009;43.224;27.976;2023-07-22T08:19:23;7.57;;;6.90;;
5965;SDS011;3009;43.224;27.976;2023-07-22T08:21:51;9.00;;;8.17;;
5965;SDS011;3009;43.224;27.976;2023-07-22T08:24:19;8.20;;;7.53;;
5965;SDS011;3009;43.224;27.976;2023-07-22T08:26:50;8.33;;;7.60;;
5965;SDS011;3009;43.224;27.976;2023-07-22T08:29:18;9.50;;;8.20;;
5965;SDS011;3009;43.224;27.976;2023-07-22T08:31:46;9.23;;;8.40;;
5965;SDS011;3009;43.224;27.976;2023-07-22T08:34:15;9.37;;;8.27;;
5965;SDS011;3009;43.224;27.976;2023-07-22T08:36:43;8.80;;;8.20;;
5965;SDS011;3009;43.224;27.976;2023-07-22T08:39:12;8.90;;;8.20;;
5965;SDS011;3009;43.224;27.976;2023-07-22T08:41:40;9.67;;;8.50;;
5965;SDS011;3009;43.224;27.976;2023-07-22T08:44:18;8.77;;;7.93;;
5965;SDS011;3009;43.224;27.976;2023-07-22T08:46:50;9.10;;;7.90;;
5965;SDS011;3009;43.224;27.976;2023-07-22T08:49:25;11.00;;;8.43;;
5965;SDS011;3009;43.224;27.976;2023-07-22T08:51:55;10.80;;;8.57;;
5965;SDS011;3009;43.224;27.976;2023-07-22T08:54:24;12.00;;;8.30;;
5965;SDS011;3009;43.224;27.976;2023-07-22T08:56:53;9.67;;;8.20;;
5965;SDS011;3009;43.224;27.976;2023-07-22T08:59:23;10.27;;;8.93;;
5965;SDS011;3009;43.224;27.976;2023-07-22T09:01:52;8.67;;;7.97;;
5965;SDS011;3009;43.224;27.976;2023-07-22T09:04:22;8.53;;;7.67;;
5965;SDS011;3009;43.224;27.976;2023-07-22T09:06:51;9.17;;;7.70;;
5965;SDS011;3009;43.224;27.976;2023-07-22T09:09:22;8.97;;;7.30;;
5965;SDS011;3009;43.224;27.976;2023-07-22T09:11:53;10.07;;;8.77;;
5965;SDS011;3009;43.224;27.976;2023-07-22T09:14:24;9.57;;;8.10;;
5965;SDS011;3009;43.224;27.976;2023-07-22T09:17:03;8.90;;;7.40;;
5965;SDS011;3009;43.224;27.976;2023-07-22T09:19:32;13.20;;;7.90;;
5965;SDS011;3009;43.224;27.976;2023-07-22T09:22:00;8.23;;;7.43;;
5965;SDS011;3009;43.224;27.976;2023-07-22T09:24:29;9.63;;;8.73;;
5965;SDS011;3009;43.224;27.976;2023-07-22T09:26:58;8.17;;;7.47;;
5965;SDS011;3009;43.224;27.976;2023-07-22T09:29:35;8.77;;;7.80;;
5965;SDS011;3009;43.224;27.976;2023-07-22T09:32:04;9.13;;;8.40;;
5965;SDS011;3009;43.224;27.976;2023-07-22T09:34:34;9.07;;;8.27;;
5965;SDS011;3009;43.224;27.976;2023-07-22T09:37:02;8.97;;;8.20;;
5965;SDS011;3009;43.224;27.976;2023-07-22T09:39:32;8.30;;;7.50;;
5965;SDS011;3009;43.224;27.976;2023-07-22T09:42:02;8.03;;;7.17;;
5965;SDS011;3009;43.224;27.976;2023-07-22T09:44:32;16.17;;;8.40;;
5965;SDS011;3009;43.224;27.976;2023-07-22T09:47:07;8.87;;;7.97;;
5965;SDS011;3009;43.224;27.976;2023-07-22T09:49:40;8.90;;;8.20;;
5965;SDS011;3009;43.224;27.976;2023-07-22T09:52:10;9.20;;;7.70;;
5965;SDS011;3009;43.224;27.976;2023-07-22T09:54:46;8.97;;;8.07;;
5965;SDS011;3009;43.224;27.976;2023-07-22T09:57:16;9.43;;;8.63;;
5965;SDS011;3009;43.224;27.976;2023-07-22T09:59:45;9.17;;;7.87;;
5965;SDS011;3009;43.224;27.976;2023-07-22T10:02:18;10.40;;;8.30;;
5965;SDS011;3009;43.224;27.976;2023-07-22T10:04:50;8.30;;;7.40;;
5965;SDS011;3009;43.224;27.976;2023-07-22T10:07:19;9.47;;;8.67;;
5965;SDS011;3009;43.224;27.976;2023-07-22T10:09:49;8.80;;;8.10;;
5965;SDS011;3009;43.224;27.976;2023-07-22T10:12:22;9.93;;;8.27;;
5965;SDS011;3009;43.224;27.976;2023-07-22T10:14:51;8.27;;;7.57;;
5965;SDS011;3009;43.224;27.976;2023-07-22T10:17:23;8.83;;;7.97;;
5965;SDS011;3009;43.224;27.976;2023-07-22T10:19:52;13.30;;;8.10;;
5965;SDS011;3009;43.224;27.976;2023-07-22T10:22:21;8.73;;;7.70;;
5965;SDS011;3009;43.224;27.976;2023-07-22T10:24:51;10.10;;;8.57;;
5965;SDS011;3009;43.224;27.976;2023-07-22T10:27:21;9.63;;;7.80;;
5965;SDS011;3009;43.224;27.976;2023-07-22T10:29:51;9.67;;;8.80;;
5965;SDS011;3009;43.224;27.976;2023-07-22T10:32:24;9.80;;;8.80;;
5965;SDS011;3009;43.224;27.976;2023-07-22T10:34:52;8.80;;;8.00;;
5965;SDS011;3009;43.224;27.976;2023-07-22T10:37:27;9.20;;;8.50;;
5965;SDS011;3009;43.224;27.976;2023-07-22T10:40:01;8.10;;;7.50;;
5965;SDS011;3009;43.224;27.976;2023-07-22T10:42:52;8.07;;;7.47;;
5965;SDS011;3009;43.224;27.976;2023-07-22T10:45:24;20.17;;;7.90;;
5965;SDS011;3009;43.224;27.976;2023-07-22T10:48:06;8.90;;;8.07;;
5965;SDS011;3009;43.224;27.976;2023-07-22T10:50:39;8.67;;;8.07;;
5965;SDS011;3009;43.224;27.976;2023-07-22T10:53:10;7.50;;;7.00;;
5965;SDS011;3009;43.224;27.976;2023-07-22T10:58:55;9.67;;;8.47;;
5965;SDS011;3009;43.224;27.976;2023-07-22T11:01:33;8.07;;;7.30;;
5965;SDS011;3009;43.224;27.976;2023-07-22T11:04:22;8.07;;;7.20;;
5965;SDS011;3009;43.224;27.976;2023-07-22T11:07:28;8.73;;;7.93;;
5965;SDS011;3009;43.224;27.976;2023-07-22T11:09:58;13.90;;;7.50;;
5965;SDS011;3009;43.224;27.976;2023-07-22T11:12:40;8.60;;;7.77;;
5965;SDS011;3009;43.224;27.976;2023-07-22T11:15:10;7.40;;;6.80;;
5965;SDS011;3009;43.224;27.976;2023-07-22T11:17:42;8.53;;;7.73;;
5965;SDS011;3009;43.224;27.976;2023-07-22T11:20:12;7.53;;;7.03;;
5965;SDS011;3009;43.224;27.976;2023-07-22T11:22:40;12.47;;;7.50;;
5965;SDS011;3009;43.224;27.976;2023-07-22T11:25:16;8.20;;;7.13;;
5965;SDS011;3009;43.224;27.976;2023-07-22T11:27:45;9.50;;;7.43;;
5965;SDS011;3009;43.224;27.976;2023-07-22T11:30:14;7.87;;;7.37;;
5965;SDS011;3009;43.224;27.976;2023-07-22T11:32:43;9.67;;;7.30;;
5965;SDS011;3009;43.224;27.976;2023-07-22T11:35:17;7.33;;;6.73;;
5965;SDS011;3009;43.224;27.976;2023-07-22T11:37:46;9.00;;;7.60;;
5965;SDS011;3009;43.224;27.976;2023-07-22T11:40:14;7.00;;;6.50;;
5965;SDS011;3009;43.224;27.976;2023-07-22T11:42:44;7.80;;;7.20;;
5965;SDS011;3009;43.224;27.976;2023-07-22T11:45:14;8.63;;;7.20;;
5965;SDS011;3009;43.224;27.976;2023-07-22T11:47:42;7.17;;;6.47;;
5965;SDS011;3009;43.224;27.976;2023-07-22T11:50:11;9.60;;;7.40;;
5965;SDS011;3009;43.224;27.976;2023-07-22T11:52:42;11.50;;;7.10;;
5965;SDS011;3009;43.224;27.976;2023-07-22T11:55:10;8.10;;;7.30;;
5965;SDS011;3009;43.224;27.976;2023-07-22T11:57:51;7.53;;;6.83;;
5965;SDS011;3009;43.224;27.976;2023-07-22T12:00:20;7.83;;;7.17;;
5965;SDS011;3009;43.224;27.976;2023-07-22T12:02:49;11.47;;;7.00;;
5965;SDS011;3009;43.224;27.976;2023-07-22T12:05:23;8.27;;;6.80;;
5965;SDS011;3009;43.224;27.976;2023-07-22T12:07:53;12.03;;;7.00;;
5965;SDS011;3009;43.224;27.976;2023-07-22T12:10:21;7.43;;;6.83;;
5965;SDS011;3009;43.224;27.976;2023-07-22T12:12:52;13.23;;;7.93;;
5965;SDS011;3009;43.224;27.976;2023-07-22T12:15:21;8.17;;;7.37;;
5965;SDS011;3009;43.224;27.976;2023-07-22T12:17:51;8.47;;;7.67;;
5965;SDS011;3009;43.224;27.976;2023-07-22T12:20:23;7.07;;;6.37;;
5965;SDS011;3009;43.224;27.976;2023-07-22T12:22:54;10.27;;;7.23;;
5965;SDS011;3009;43.224;27.976;2023-07-22T12:25:24;8.03;;;7.23;;
5965;SDS011;3009;43.224;27.976;2023-07-22T12:27:52;13.03;;;7.20;;
5965;SDS011;3009;43.224;27.976;2023-07-22T12:30:21;9.13;;;6.83;;
5965;SDS011;3009;43.224;27.976;2023-07-22T12:32:53;7.80;;;7.20;;
5965;SDS011;3009;43.224;27.976;2023-07-22T12:35:21;10.07;;;7.43;;
5965;SDS011;3009;43.224;27.976;2023-07-22T12:37:49;9.50;;;8.73;;
5965;SDS011;3009;43.224;27.976;2023-07-22T12:40:19;10.80;;;8.20;;
5965;SDS011;3009;43.224;27.976;2023-07-22T12:42:48;8.13;;;7.37;;
5965;SDS011;3009;43.224;27.976;2023-07-22T12:45:16;7.90;;;7.10;;
5965;SDS011;3009;43.224;27.976;2023-07-22T12:47:44;9.80;;;7.07;;
5965;SDS011;3009;43.224;27.976;2023-07-22T12:50:14;24.60;;;7.83;;
5965;SDS011;3009;43.224;27.976;2023-07-22T12:52:42;7.90;;;7.20;;
5965;SDS011;3009;43.224;27.976;2023-07-22T12:55:10;7.83;;;7.00;;
5965;SDS011;3009;43.224;27.976;2023-07-22T12:57:40;8.43;;;7.30;;
5965;SDS011;3009;43.224;27.976;2023-07-22T13:00:09;10.57;;;7.13;;
5965;SDS011;3009;43.224;27.976;2023-07-22T13:02:39;7.50;;;7.00;;
5965;SDS011;3009;43.224;27.976;2023-07-22T13:05:07;7.90;;;6.60;;
5965;SDS011;3009;43.224;27.976;2023-07-22T13:07:36;12.43;;;6.90;;
5965;SDS011;3009;43.224;27.976;2023-07-22T13:10:10;10.87;;;7.97;;
5965;SDS011;3009;43.224;27.976;2023-07-22T13:12:56;7.03;;;6.43;;
5965;SDS011;3009;43.224;27.976;2023-07-22T13:15:25;8.20;;;6.70;;
5965;SDS011;3009;43.224;27.976;2023-07-22T13:17:54;10.20;;;7.07;;
5965;SDS011;3009;43.224;27.976;2023-07-22T13:20:31;7.83;;;7.03;;
5965;SDS011;3009;43.224;27.976;2023-07-22T13:23:00;12.77;;;7.73;;
5965;SDS011;3009;43.224;27.976;2023-07-22T13:25:28;7.80;;;7.07;;
5965;SDS011;3009;43.224;27.976;2023-07-22T13:27:58;7.77;;;6.73;;
5965;SDS011;3009;43.224;27.976;2023-07-22T13:30:27;13.03;;;7.33;;
5965;SDS011;3009;43.224;27.976;2023-07-22T13:32:55;7.47;;;6.77;;
5965;SDS011;3009;43.224;27.976;2023-07-22T13:35:24;13.03;;;7.00;;
5965;SDS011;3009;43.224;27.976;2023-07-22T13:37:52;10.00;;;7.10;;
5965;SDS011;3009;43.224;27.976;2023-07-22T13:40:20;7.33;;;6.70;;
5965;SDS011;3009;43.224;27.976;2023-07-22T13:42:49;13.33;;;6.90;;
5965;SDS011;3009;43.224;27.976;2023-07-22T13:45:18;7.93;;;7.03;;
5965;SDS011;3009;43.224;27.976;2023-07-22T13:47:47;8.57;;;7.77;;
5965;SDS011;3009;43.224;27.976;2023-07-22T13:50:16;9.00;;;7.37;;
5965;SDS011;3009;43.224;27.976;2023-07-22T13:52:44;9.20;;;8.00;;
5965;SDS011;3009;43.224;27.976;2023-07-22T13:55:13;7.53;;;7.00;;
5965;SDS011;3009;43.224;27.976;2023-07-22T13:57:43;8.10;;;6.80;;
5965;SDS011;3009;43.224;27.976;2023-07-22T14:00:12;12.30;;;7.80;;
5965;SDS011;3009;43.224;27.976;2023-07-22T14:02:42;7.93;;;7.23;;
5965;SDS011;3009;43.224;27.976;2023-07-22T14:05:11;6.90;;;6.20;;
5965;SDS011;3009;43.224;27.976;2023-07-22T14:07:39;11.33;;;6.67;;
5965;SDS011;3009;43.224;27.976;2023-07-22T14:10:08;10.20;;;6.97;;
5965;SDS011;3009;43.224;27.976;2023-07-22T14:12:37;15.57;;;7.30;;
5965;SDS011;3009;43.224;27.976;2023-07-22T14:15:06;12.27;;;7.57;;
5965;SDS011;3009;43.224;27.976;2023-07-22T14:17:36;16.33;;;6.33;;
5965;SDS011;3009;43.224;27.976;2023-07-22T14:20:08;8.27;;;6.93;;
5965;SDS011;3009;43.224;27.976;2023-07-22T14:22:38;8.90;;;7.67;;
5965;SDS011;3009;43.224;27.976;2023-07-22T14:25:06;7.57;;;6.90;;
5965;SDS011;3009;43.224;27.976;2023-07-22T14:27:37;8.53;;;7.57;;
5965;SDS011;3009;43.224;27.976;2023-07-22T14:30:07;9.53;;;7.27;;
5965;SDS011;3009;43.224;27.976;2023-07-22T14:32:36;8.03;;;7.20;;
5965;SDS011;3009;43.224;27.976;2023-07-22T14:35:05;11.93;;;8.00;;
5965;SDS011;3009;43.224;27.976;2023-07-22T14:37:35;10.50;;;7.60;;
5965;SDS011;3009;43.224;27.976;2023-07-22T14:40:04;9.40;;;7.63;;
5965;SDS011;3009;43.224;27.976;2023-07-22T14:42:35;17.53;;;8.20;;
5965;SDS011;3009;43.224;27.976;2023-07-22T14:45:04;11.80;;;7.57;;
5965;SDS011;3009;43.224;27.976;2023-07-22T14:47:34;9.00;;;7.17;;
5965;SDS011;3009;43.224;27.976;2023-07-22T14:50:03;7.00;;;6.40;;
5965;SDS011;3009;43.224;27.976;2023-07-22T14:52:35;16.00;;;7.33;;
5965;SDS011;3009;43.224;27.976;2023-07-22T14:55:04;7.80;;;7.10;;
5965;SDS011;3009;43.224;27.976;2023-07-22T14:57:32;8.30;;;7.23;;
5965;SDS011;3009;43.224;27.976;2023-07-22T15:00:01;11.20;;;7.23;;
5965;SDS011;3009;43.224;27.976;2023-07-22T15:02:30;10.50;;;7.40;;
5965;SDS011;3009;43.224;27.976;2023-07-22T15:04:59;12.83;;;7.10;;
5965;SDS011;3009;43.224;27.976;2023-07-22T15:07:27;11.40;;;7.13;;
5965;SDS011;3009;43.224;27.976;2023-07-22T15:09:58;8.57;;;7.77;;
5965;SDS011;3009;43.224;27.976;2023-07-22T15:12:27;11.33;;;7.90;;